Time;durP1;ratioP1;P1;durP2;ratioP2;P2;SDS_P1;SDS_P2;PMS_P1;PMS_P2;Temp;Humidity;BMP_temperature;BMP_pressure;BME280_temperature;BME280_humidity;BME280_pressure;Samples;Min_cycle;Max_cycle;Signal;HPM_P1;HPM_P2
2023/03/21 00:02:26;;;;;;;37.78;23.40;;;9.40;99.90;;;;;;4944595;28;20055;-83
2023/03/21 00:04:52;;;;;;;36.37;23.43;;;9.40;99.90;;;;;;4922960;28;20053;-82
2023/03/21 00:07:23;;;;;;;38.87;23.20;;;9.40;99.90;;;;;;4920203;28;20039;-82
2023/03/21 00:10:35;;;;;;;36.53;22.47;;;9.40;99.90;;;;;;4982836;28;20038;-82
2023/03/21 00:13:11;;;;;;;38.13;23.23;;;9.50;99.90;;;;;;4968231;28;20418;-81
2023/03/21 00:15:54;;;;;;;37.63;23.43;;;9.40;99.90;;;;;;4977394;28;20038;-82
2023/03/21 00:18:35;;;;;;;38.70;23.67;;;9.40;99.90;;;;;;4989067;28;20037;-82
2023/03/21 00:21:06;;;;;;;42.43;23.97;;;9.40;99.90;;;;;;4989592;28;20076;-81
2023/03/21 00:23:57;;;;;;;44.77;24.13;;;9.40;99.90;;;;;;4951723;28;20497;-82
2023/03/21 00:26:41;;;;;;;47.72;24.73;;;9.40;99.90;;;;;;4918004;29;20098;-82
2023/03/21 00:29:13;;;;;;;45.40;23.77;;;9.50;99.90;;;;;;4919106;28;20051;-81
2023/03/21 00:35:02;;;;;;;52.33;25.40;;;9.40;99.90;;;;;;4917730;29;20406;-82
2023/03/21 00:37:37;;;;;;;46.83;24.10;;;9.40;99.90;;;;;;4913526;29;20061;-82
2023/03/21 00:40:20;;;;;;;54.23;25.53;;;9.50;99.90;;;;;;4920685;29;20038;-82
2023/03/21 00:42:54;;;;;;;51.33;25.07;;;9.50;99.90;;;;;;4920061;29;20039;-83
2023/03/21 00:45:26;;;;;;;50.53;25.07;;;9.50;99.90;;;;;;4938189;29;20562;-81
2023/03/21 00:51:26;;;;;;;52.30;25.03;;;9.50;99.90;;;;;;4932267;29;20055;-81
2023/03/21 00:53:56;;;;;;;49.00;24.90;;;9.50;99.90;;;;;;4942078;28;20050;-82
2023/03/21 00:57:01;;;;;;;49.03;25.30;;;9.50;99.90;;;;;;4978046;28;20046;-82
2023/03/21 01:00:14;;;;;;;49.73;24.13;;;9.50;99.90;;;;;;4971433;28;20218;-82
2023/03/21 01:03:04;;;;;;;43.00;24.17;;;9.50;99.90;;;;;;4955964;28;20084;-82
2023/03/21 01:08:18;;;;;;;42.87;23.00;;;9.50;99.90;;;;;;4955520;28;20577;-83
2023/03/21 01:13:51;;;;;;;41.63;22.50;;;9.50;99.90;;;;;;4969143;28;20042;-81
2023/03/21 01:16:31;;;;;;;40.90;21.40;;;9.60;99.90;;;;;;4955531;28;20062;-82
2023/03/21 01:19:45;;;;;;;40.07;21.60;;;9.50;99.90;;;;;;4938334;28;20133;-82
2023/03/21 01:22:16;;;;;;;39.07;21.60;;;9.50;99.90;;;;;;4946531;28;20070;-82
2023/03/21 01:24:45;;;;;;;37.27;20.43;;;9.60;99.90;;;;;;4978127;28;20080;-81
2023/03/21 01:27:40;;;;;;;36.10;20.10;;;9.60;99.90;;;;;;4972957;28;20042;-83
2023/03/21 01:34:23;;;;;;;41.40;22.17;;;9.60;99.90;;;;;;4985632;28;20046;-82
2023/03/21 01:37:05;;;;;;;38.47;21.20;;;9.60;99.90;;;;;;4980241;28;20049;-82
2023/03/21 01:43:46;;;;;;;35.83;20.03;;;9.50;99.90;;;;;;4930484;29;19973;-82
2023/03/21 01:47:00;;;;;;;36.53;19.93;;;9.50;99.90;;;;;;4913312;29;20502;-82
2023/03/21 01:50:21;;;;;;;35.57;18.70;;;9.60;99.90;;;;;;4920613;29;20055;-83
2023/03/21 01:53:42;;;;;;;33.20;18.93;;;9.50;99.90;;;;;;4997389;28;20553;-81
2023/03/21 01:59:45;;;;;;;34.73;19.27;;;9.60;99.90;;;;;;4948091;28;20057;-82
2023/03/21 02:02:36;;;;;;;39.00;21.03;;;9.60;99.90;;;;;;4974594;28;20033;-82
2023/03/21 02:06:39;;;;;;;;;;;;;;;;;;;;;
2023/03/21 02:09:40;;;;;;;;;;;;;;;;;;;;;
2023/03/21 02:16:29;;;;;;;39.47;21.97;;;9.60;99.90;;;;;;4911365;29;20091;-82
2023/03/21 02:19:23;;;;;;;40.90;21.83;;;9.60;99.90;;;;;;4914455;29;20074;-82
2023/03/21 02:22:12;;;;;;;40.23;21.80;;;9.60;99.90;;;;;;4873066;29;20049;-82
2023/03/21 02:25:09;;;;;;;41.87;22.93;;;9.60;99.90;;;;;;4936652;28;20083;-82
2023/03/21 02:28:17;;;;;;;36.40;20.33;;;9.60;99.90;;;;;;4969005;28;20042;-81
2023/03/21 02:37:28;;;;;;;39.27;21.40;;;9.60;99.90;;;;;;4948260;29;20043;-81
2023/03/21 02:40:27;;;;;;;38.77;21.30;;;9.60;99.90;;;;;;4934427;29;20287;-81
2023/03/21 02:43:34;;;;;;;37.37;20.67;;;9.60;99.90;;;;;;4918933;29;20789;-82
2023/03/21 02:46:49;;;;;;;40.33;22.73;;;9.60;99.90;;;;;;4946441;29;20035;-82
2023/03/21 02:49:18;;;;;;;37.07;20.37;;;9.60;99.90;;;;;;4931580;29;20051;-82
2023/03/21 02:52:40;;;;;;;38.13;20.63;;;9.60;99.90;;;;;;4947389;29;20053;-81
2023/03/21 02:55:38;;;;;;;38.57;20.40;;;9.60;99.90;;;;;;4909254;28;20142;-82
2023/03/21 02:58:32;;;;;;;36.10;20.00;;;9.60;99.90;;;;;;4979335;28;20050;-81
2023/03/21 03:01:08;;;;;;;34.17;20.33;;;9.60;99.90;;;;;;4970187;28;20033;-81
2023/03/21 03:04:19;;;;;;;32.63;19.33;;;9.60;99.90;;;;;;4972560;28;20054;-82
2023/03/21 03:07:40;;;;;;;36.40;21.07;;;9.60;99.90;;;;;;4993447;28;20104;-82
2023/03/21 03:10:36;;;;;;;41.83;22.17;;;9.60;99.90;;;;;;4999008;28;20501;-82
2023/03/21 03:17:46;;;;;;;35.92;20.50;;;9.60;99.90;;;;;;5001946;28;20555;-80
2023/03/21 03:21:09;;;;;;;;;;;;;;;;;;;;;
2023/03/21 03:28:02;;;;;;;33.60;18.60;;;9.60;99.90;;;;;;4928231;29;20059;-80
2023/03/21 03:34:42;;;;;;;33.43;17.20;;;9.60;99.90;;;;;;4927906;29;20047;-80
2023/03/21 03:37:48;;;;;;;34.57;17.97;;;9.60;99.90;;;;;;4916103;29;20531;-81
2023/03/21 03:40:59;;;;;;;28.33;16.67;;;9.60;99.90;;;;;;4910565;29;20059;-80
2023/03/21 03:47:17;;;;;;;29.47;16.37;;;9.60;99.90;;;;;;4992865;28;20109;-80
2023/03/21 03:53:16;;;;;;;28.00;16.00;;;9.60;99.90;;;;;;5004676;28;20473;-80
2023/03/21 04:00:34;;;;;;;;;;;;;;;;;;;;;
2023/03/21 04:03:36;;;;;;;29.73;15.63;;;9.60;99.90;;;;;;4849012;29;20058;-80
2023/03/21 04:06:29;;;;;;;27.87;15.03;;;9.50;99.90;;;;;;4807868;29;20051;-80
2023/03/21 04:09:49;;;;;;;25.77;15.70;;;9.60;99.90;;;;;;4791991;29;20415;-80
2023/03/21 04:16:33;;;;;;;26.07;15.43;;;9.50;99.90;;;;;;4855508;29;20072;-80
2023/03/21 04:26:48;;;;;;;28.70;16.13;;;9.50;99.90;;;;;;4814015;29;20369;-80
2023/03/21 04:29:15;;;;;;;33.10;18.10;;;9.50;99.90;;;;;;4723473;30;20084;-80
2023/03/21 04:31:48;;;;;;;29.37;18.20;;;9.50;99.90;;;;;;4751052;30;20539;-80
2023/03/21 04:34:30;;;;;;;30.00;18.03;;;9.50;99.90;;;;;;4726892;30;20087;-80
2023/03/21 04:37:34;;;;;;;28.87;18.03;;;9.50;99.90;;;;;;4790827;29;20050;-80
2023/03/21 04:44:21;;;;;;;27.53;17.30;;;9.50;99.90;;;;;;4848279;29;20133;-80
2023/03/21 04:46:53;;;;;;;29.90;18.27;;;9.50;99.90;;;;;;4844758;29;20061;-80
2023/03/21 04:49:40;;;;;;;30.25;18.02;;;9.50;99.90;;;;;;4861070;29;20148;-80
2023/03/21 04:52:55;;;;;;;28.92;16.92;;;9.50;99.90;;;;;;4916391;28;20086;-80
2023/03/21 04:55:56;;;;;;;30.40;17.50;;;9.50;99.90;;;;;;4991276;28;20410;-80
2023/03/21 04:59:16;;;;;;;27.60;15.87;;;9.50;99.90;;;;;;4976270;28;20482;-80
2023/03/21 05:01:55;;;;;;;27.73;16.47;;;9.50;99.90;;;;;;4920397;28;20458;-80
2023/03/21 05:04:32;;;;;;;25.17;15.97;;;9.50;99.90;;;;;;4938245;28;20490;-80
2023/03/21 05:07:07;;;;;;;29.23;17.33;;;9.50;99.90;;;;;;4955440;28;20064;-80
2023/03/21 05:09:56;;;;;;;31.03;17.97;;;9.50;99.90;;;;;;4954780;28;20613;-80
2023/03/21 05:12:46;;;;;;;28.90;18.23;;;9.50;99.90;;;;;;4949542;28;20667;-80
2023/03/21 05:15:34;;;;;;;28.43;17.13;;;9.50;99.90;;;;;;4956678;28;20050;-80
2023/03/21 05:18:09;;;;;;;31.80;18.60;;;9.50;99.90;;;;;;4922725;28;20512;-80
2023/03/21 05:24:25;;;;;;;32.77;19.17;;;9.50;99.90;;;;;;4967827;28;20054;-80
2023/03/21 05:27:00;;;;;;;33.27;19.43;;;9.50;99.90;;;;;;4966271;28;20054;-80
2023/03/21 05:30:02;;;;;;;33.17;19.53;;;9.50;99.90;;;;;;4978102;28;20061;-80
2023/03/21 05:36:07;;;;;;;35.17;21.40;;;9.50;99.90;;;;;;5000892;28;20653;-80
2023/03/21 05:38:55;;;;;;;40.17;22.10;;;9.50;99.90;;;;;;5010856;28;20046;-80
2023/03/21 05:42:14;;;;;;;36.90;21.40;;;9.50;99.90;;;;;;4943519;28;20075;-81
2023/03/21 05:44:58;;;;;;;35.50;21.80;;;9.50;99.90;;;;;;4982893;28;20048;-81
2023/03/21 05:47:30;;;;;;;37.23;21.50;;;9.50;99.90;;;;;;4982092;28;20049;-81
2023/03/21 05:50:18;;;;;;;;;;;9.50;99.90;;;;;;4985867;28;20046;-81
2023/03/21 05:53:02;;;;;;;39.13;22.40;;;9.50;99.90;;;;;;5003370;28;20364;-81
2023/03/21 05:55:34;;;;;;;36.47;21.77;;;9.50;99.90;;;;;;4993478;28;20057;-81
2023/03/21 05:58:45;;;;;;;34.50;21.13;;;9.50;99.90;;;;;;4968572;28;20121;-81
2023/03/21 06:01:37;;;;;;;37.97;22.30;;;9.50;99.90;;;;;;4966007;28;20046;-80
2023/03/21 06:04:06;;;;;;;39.70;23.02;;;9.50;99.90;;;;;;5001205;28;20513;-80
2023/03/21 06:06:35;;;;;;;38.72;23.63;;;9.50;99.90;;;;;;4973650;28;20045;-81
2023/03/21 06:09:06;;;;;;;44.00;25.80;;;9.40;99.90;;;;;;4991482;28;20092;-81
2023/03/21 06:11:47;;;;;;;42.20;25.27;;;9.50;99.90;;;;;;4975395;28;20515;-81
2023/03/21 06:14:41;;;;;;;43.60;25.17;;;9.50;99.90;;;;;;4989563;28;20322;-81
2023/03/21 06:17:12;;;;;;;48.93;27.00;;;9.50;99.90;;;;;;4972214;28;20522;-81
2023/03/21 06:19:43;;;;;;;43.53;26.50;;;9.50;99.90;;;;;;4941894;28;20412;-80
2023/03/21 06:22:14;;;;;;;47.93;27.50;;;9.50;99.90;;;;;;4957038;28;20057;-80
2023/03/21 06:24:48;;;;;;;45.72;26.10;;;9.50;99.90;;;;;;4957715;28;20050;-80
2023/03/21 06:27:17;;;;;;;49.27;28.67;;;9.50;99.90;;;;;;4949704;28;20058;-81
2023/03/21 06:29:47;;;;;;;48.43;27.50;;;9.50;99.90;;;;;;4957052;28;20517;-80
2023/03/21 06:32:25;;;;;;;51.33;27.10;;;9.50;99.90;;;;;;4956443;28;20051;-80
2023/03/21 06:35:13;;;;;;;51.23;28.77;;;9.50;99.90;;;;;;4958872;28;20054;-81
2023/03/21 06:38:02;;;;;;;51.60;28.40;;;9.50;99.90;;;;;;4954929;28;20046;-80
2023/03/21 06:44:25;;;;;;;;;;;;;;;;;;;;;
2023/03/21 06:47:26;;;;;;;49.87;28.37;;;9.50;99.90;;;;;;4935921;28;20055;-80
2023/03/21 06:49:56;;;;;;;48.40;28.37;;;9.50;99.90;;;;;;4979410;28;20181;-81
2023/03/21 06:52:58;;;;;;;47.97;28.57;;;9.50;99.90;;;;;;4934363;28;20514;-80
2023/03/21 06:55:27;;;;;;;46.47;26.55;;;9.50;99.90;;;;;;4907950;29;20135;-80
2023/03/21 06:58:25;;;;;;;45.53;27.07;;;9.50;99.90;;;;;;4913163;29;20056;-83
2023/03/21 07:01:03;;;;;;;44.67;27.00;;;9.50;99.90;;;;;;4881658;29;20510;-82
2023/03/21 07:03:38;;;;;;;44.47;24.77;;;9.50;99.90;;;;;;4887891;29;20051;-83
2023/03/21 07:06:13;;;;;;;47.07;26.47;;;9.50;99.90;;;;;;4923982;29;20060;-82
2023/03/21 07:08:40;;;;;;;44.00;24.70;;;9.60;99.90;;;;;;4902594;29;20055;-81
2023/03/21 07:11:12;;;;;;;40.93;23.70;;;9.50;99.90;;;;;;4857232;29;20537;-81
2023/03/21 07:13:47;;;;;;;39.80;23.53;;;9.50;99.90;;;;;;4855675;29;20454;-80
2023/03/21 07:16:14;;;;;;;39.87;22.60;;;9.50;99.90;;;;;;4849015;29;20061;-80
2023/03/21 07:19:10;;;;;;;35.87;21.07;;;9.50;99.90;;;;;;4843588;29;20124;-81
2023/03/21 07:22:02;;;;;;;33.43;20.47;;;9.60;99.90;;;;;;4856676;29;20432;-80
2023/03/21 07:24:41;;;;;;;32.95;20.17;;;9.60;99.90;;;;;;4873060;29;20064;-81
2023/03/21 07:27:17;;;;;;;;;;;9.60;99.90;;;;;;4906923;28;20319;-80
2023/03/21 07:29:53;;;;;;;27.27;17.43;;;9.60;99.90;;;;;;4943255;28;19918;-80
2023/03/21 07:32:34;;;;;;;26.83;15.87;;;9.60;99.90;;;;;;4952462;28;20427;-80
2023/03/21 07:35:17;;;;;;;24.80;15.83;;;9.70;99.90;;;;;;4952535;28;20032;-82
2023/03/21 07:37:46;;;;;;;22.77;15.07;;;9.70;99.90;;;;;;4950307;28;20055;-82
2023/03/21 07:43:47;;;;;;;19.63;12.20;;;9.70;99.90;;;;;;4972260;28;20630;-82
2023/03/21 07:46:25;;;;;;;18.53;12.57;;;9.80;99.90;;;;;;4984816;28;20049;-81
2023/03/21 07:48:54;;;;;;;124.10;30.70;;;9.80;99.90;;;;;;4991368;28;20132;-81
2023/03/21 07:51:49;;;;;;;95.87;27.30;;;9.80;99.90;;;;;;4979940;28;20102;-82
2023/03/21 07:54:20;;;;;;;79.90;22.10;;;9.80;99.90;;;;;;4996100;28;20057;-82
2023/03/21 07:56:59;;;;;;;18.80;12.60;;;9.80;99.90;;;;;;4983606;28;20385;-82
2023/03/21 07:59:47;;;;;;;100.63;28.77;;;9.80;99.90;;;;;;4993857;28;20046;-81
2023/03/21 08:02:19;;;;;;;18.30;12.27;;;9.80;99.90;;;;;;4994609;28;20037;-82
2023/03/21 08:05:05;;;;;;;18.77;13.10;;;9.80;99.90;;;;;;4998441;28;20496;-83
2023/03/21 08:07:44;;;;;;;18.40;12.57;;;9.80;99.90;;;;;;4995890;28;20129;-80
2023/03/21 08:10:13;;;;;;;18.98;14.10;;;9.80;99.90;;;;;;5001777;28;20130;-82
2023/03/21 08:12:39;;;;;;;20.73;13.77;;;9.80;99.90;;;;;;4985965;28;20505;-84
2023/03/21 08:15:17;;;;;;;23.17;14.47;;;9.80;99.90;;;;;;4987289;28;20073;-82
2023/03/21 08:18:04;;;;;;;20.10;15.00;;;9.80;99.90;;;;;;4998263;28;20125;-82
2023/03/21 08:21:05;;;;;;;21.57;15.77;;;9.80;99.90;;;;;;4994566;28;20508;-82
2023/03/21 08:23:44;;;;;;;22.47;15.10;;;9.80;99.90;;;;;;5003436;28;20074;-82
2023/03/21 08:26:17;;;;;;;25.47;16.93;;;9.80;99.90;;;;;;4995930;28;20042;-82
2023/03/21 08:28:54;;;;;;;22.50;15.63;;;9.80;99.90;;;;;;4987782;28;20049;-84
2023/03/21 08:31:39;;;;;;;23.33;16.67;;;9.80;99.90;;;;;;5003296;28;20046;-81
2023/03/21 08:34:28;;;;;;;25.97;16.37;;;9.70;99.90;;;;;;4988985;28;20314;-82
2023/03/21 08:37:05;;;;;;;24.20;16.37;;;9.80;99.90;;;;;;5013844;28;20037;-82
2023/03/21 08:40:29;;;;;;;21.77;16.00;;;9.70;99.90;;;;;;5001338;28;20041;-82
2023/03/21 08:43:00;;;;;;;24.80;16.50;;;9.80;99.90;;;;;;4910576;28;20054;-82
2023/03/21 08:45:33;;;;;;;23.93;16.83;;;9.80;99.90;;;;;;4995452;28;20512;-82
2023/03/21 08:48:09;;;;;;;25.73;16.73;;;9.80;99.90;;;;;;4998383;28;20135;-82
2023/03/21 08:50:35;;;;;;;24.57;16.40;;;9.80;99.90;;;;;;4979995;28;20045;-82
2023/03/21 08:53:34;;;;;;;25.63;16.20;;;9.90;99.90;;;;;;4998068;28;20515;-82
2023/03/21 08:56:14;;;;;;;25.37;16.83;;;9.90;99.90;;;;;;5011613;28;20072;-82
2023/03/21 08:59:02;;;;;;;23.30;16.67;;;9.90;99.90;;;;;;4952296;28;20049;-81
2023/03/21 09:01:37;;;;;;;24.23;16.20;;;9.90;99.90;;;;;;5009660;28;20100;-82
2023/03/21 09:07:28;;;;;;;24.47;15.53;;;10.00;99.90;;;;;;5005413;28;20042;-82
2023/03/21 09:10:26;;;;;;;21.87;15.30;;;10.00;99.90;;;;;;4992116;28;20030;-83
2023/03/21 09:13:15;;;;;;;21.50;15.03;;;10.00;99.90;;;;;;4994244;28;20045;-82
2023/03/21 09:16:00;;;;;;;25.63;15.27;;;10.00;99.90;;;;;;4981006;28;20378;-83
2023/03/21 09:18:49;;;;;;;24.27;15.30;;;10.00;99.90;;;;;;4991396;28;20103;-82
2023/03/21 09:21:40;;;;;;;23.97;15.97;;;10.00;99.90;;;;;;4987975;28;20116;-82
2023/03/21 09:24:11;;;;;;;23.43;16.13;;;10.00;99.90;;;;;;5015897;28;20042;-81
2023/03/21 09:26:57;;;;;;;28.98;18.40;;;10.00;99.90;;;;;;5005843;28;20062;-81
2023/03/21 09:29:28;;;;;;;33.50;19.83;;;10.00;99.90;;;;;;4978800;28;20573;-83
2023/03/21 09:32:10;;;;;;;;;;;;;;;;;;;;;
2023/03/21 09:35:09;;;;;;;35.07;21.33;;;10.10;99.90;;;;;;4972578;28;20046;-82
2023/03/21 09:37:50;;;;;;;32.13;21.07;;;10.00;99.90;;;;;;4976476;28;20583;-82
2023/03/21 09:40:43;;;;;;;31.80;20.33;;;10.00;99.90;;;;;;4975869;28;20124;-82
2023/03/21 09:43:48;;;;;;;32.77;20.57;;;10.00;99.90;;;;;;4988207;28;20095;-83
2023/03/21 09:46:47;;;;;;;34.63;21.07;;;10.00;99.90;;;;;;4961031;28;20077;-81
2023/03/21 09:50:02;;;;;;;32.93;20.07;;;10.00;99.90;;;;;;4965029;28;20046;-82
2023/03/21 09:53:00;;;;;;;35.83;20.15;;;10.00;99.90;;;;;;4991538;28;20054;-81
2023/03/21 09:55:45;;;;;;;28.97;19.17;;;10.00;99.90;;;;;;4963581;28;20038;-82
2023/03/21 09:58:42;;;;;;;28.52;19.60;;;10.10;99.90;;;;;;4963898;28;20042;-82
2023/03/21 10:01:40;;;;;;;32.03;19.87;;;10.10;99.90;;;;;;4979530;28;20046;-83
2023/03/21 10:04:23;;;;;;;30.23;19.80;;;10.10;99.90;;;;;;5000495;28;20508;-85
2023/03/21 10:07:04;;;;;;;30.93;20.00;;;10.10;99.90;;;;;;5000119;28;20124;-83
2023/03/21 10:09:40;;;;;;;30.13;19.97;;;10.10;99.90;;;;;;4997184;28;20183;-84
2023/03/21 10:15:44;;;;;;;31.40;19.50;;;10.10;99.90;;;;;;5007102;28;20050;-82
2023/03/21 10:18:24;;;;;;;31.33;19.23;;;10.10;99.90;;;;;;4993759;28;20097;-83
2023/03/21 10:20:53;;;;;;;30.67;20.33;;;10.10;99.90;;;;;;4989224;28;20049;-84
2023/03/21 10:23:42;;;;;;;32.70;20.13;;;10.10;99.90;;;;;;5006064;28;20450;-82
2023/03/21 10:26:23;;;;;;;30.47;19.10;;;10.10;99.90;;;;;;4998827;28;20124;-83
2023/03/21 10:29:35;;;;;;;29.00;18.73;;;10.10;99.90;;;;;;4974833;28;20051;-82
2023/03/21 10:32:16;;;;;;;31.70;18.80;;;10.10;99.90;;;;;;4984196;28;20426;-83
2023/03/21 10:35:08;;;;;;;33.92;19.02;;;10.10;99.90;;;;;;4980101;28;20318;-81
2023/03/21 10:37:35;;;;;;;27.50;18.25;;;10.20;99.90;;;;;;4966112;28;20058;-82
2023/03/21 10:40:01;;;;;;;30.93;18.53;;;10.20;99.90;;;;;;4978846;28;20042;-82
2023/03/21 10:42:56;;;;;;;30.63;17.50;;;10.20;99.90;;;;;;4958043;28;20048;-83
2023/03/21 10:45:57;;;;;;;29.07;17.73;;;10.30;99.90;;;;;;4960341;28;20054;-82
2023/03/21 10:48:45;;;;;;;26.40;16.90;;;10.30;99.90;;;;;;4973130;28;20092;-83
2023/03/21 10:54:43;;;;;;;28.23;17.37;;;10.30;99.90;;;;;;4965709;28;20150;-82
2023/03/21 10:57:26;;;;;;;25.53;17.10;;;10.30;99.90;;;;;;4973203;28;20046;-82
2023/03/21 11:01:04;;;;;;;28.40;17.90;;;10.40;99.90;;;;;;4960193;28;20049;-83
2023/03/21 11:03:32;;;;;;;28.90;16.20;;;10.40;99.90;;;;;;4982702;28;20054;-82
2023/03/21 11:06:13;;;;;;;26.33;17.23;;;10.40;99.90;;;;;;4987376;28;20122;-82
2023/03/21 11:08:57;;;;;;;23.73;15.87;;;10.50;99.90;;;;;;4990719;28;20073;-82
2023/03/21 11:12:15;;;;;;;29.57;16.90;;;10.60;99.90;;;;;;4986006;28;20133;-84
2023/03/21 11:14:51;;;;;;;24.97;15.57;;;10.60;99.90;;;;;;4942311;28;20116;-82
2023/03/21 11:17:41;;;;;;;24.87;16.57;;;10.70;99.90;;;;;;4952786;28;20053;-81
2023/03/21 11:20:47;;;;;;;29.63;17.27;;;10.70;99.90;;;;;;4965765;28;20070;-81
2023/03/21 11:23:26;;;;;;;25.93;17.27;;;10.90;99.90;;;;;;4973457;28;20113;-82
2023/03/21 11:25:57;;;;;;;26.47;16.27;;;10.90;99.90;;;;;;4977261;28;20042;-82
2023/03/21 11:28:32;;;;;;;23.90;16.40;;;11.00;99.90;;;;;;4987455;28;20061;-82
2023/03/21 11:31:47;;;;;;;27.10;15.97;;;11.10;99.90;;;;;;4989512;28;20053;-81
2023/03/21 11:34:54;;;;;;;22.70;16.33;;;11.00;99.90;;;;;;4988707;28;20058;-81
2023/03/21 11:37:54;;;;;;;22.93;15.10;;;11.10;99.90;;;;;;5008395;28;20088;-82
2023/03/21 11:40:33;;;;;;;24.97;16.10;;;11.20;99.90;;;;;;4972572;28;20133;-81
2023/03/21 11:43:44;;;;;;;26.45;16.13;;;11.40;99.90;;;;;;5002652;28;20049;-82
2023/03/21 11:46:21;;;;;;;22.20;14.13;;;11.50;99.90;;;;;;4965925;28;20042;-81
2023/03/21 11:49:22;;;;;;;19.45;14.43;;;11.40;99.90;;;;;;4963391;28;20042;-80
2023/03/21 11:52:24;;;;;;;20.85;14.32;;;11.40;99.90;;;;;;4949921;28;20046;-81
2023/03/21 11:55:35;;;;;;;20.67;14.73;;;11.50;99.90;;;;;;4958352;28;20078;-80
2023/03/21 11:58:44;;;;;;;19.23;12.77;;;11.50;99.90;;;;;;4951737;28;20034;-82
2023/03/21 12:01:45;;;;;;;19.63;12.77;;;11.50;99.90;;;;;;4961756;28;20082;-83
2023/03/21 12:04:45;;;;;;;18.60;12.20;;;11.50;99.90;;;;;;4930087;28;20142;-82
2023/03/21 12:07:46;;;;;;;19.23;11.43;;;11.50;99.90;;;;;;4959545;28;20120;-83
2023/03/21 12:11:16;;;;;;;19.45;12.10;;;11.50;99.90;;;;;;4947609;28;20046;-84
2023/03/21 12:14:09;;;;;;;14.87;10.63;;;11.50;99.90;;;;;;4861839;29;20425;-81
2023/03/21 12:17:25;;;;;;;16.98;11.70;;;11.50;99.90;;;;;;4868092;29;20084;-82
2023/03/21 12:20:55;;;;;;;16.48;11.40;;;11.60;99.90;;;;;;5004686;28;20129;-82
2023/03/21 12:24:18;;;;;;;16.10;10.10;;;11.60;99.90;;;;;;4986281;28;20153;-83
2023/03/21 12:27:09;;;;;;;17.17;11.07;;;11.70;99.90;;;;;;4993114;28;20583;-83
2023/03/21 12:30:23;;;;;;;19.88;11.10;;;11.80;99.90;;;;;;4988488;28;20122;-83
2023/03/21 12:33:20;;;;;;;15.07;9.77;;;11.80;99.90;;;;;;4992977;28;20054;-84
2023/03/21 12:39:42;;;;;;;14.95;9.57;;;11.70;99.90;;;;;;4906637;29;19922;-83
2023/03/21 12:42:35;;;;;;;16.83;9.23;;;11.70;99.90;;;;;;4914452;29;20055;-84
2023/03/21 12:45:26;;;;;;;13.30;9.35;;;11.60;99.90;;;;;;4925762;29;20043;-84
2023/03/21 12:48:15;;;;;;;16.45;9.65;;;11.60;99.90;;;;;;4912741;29;20048;-83
2023/03/21 12:51:46;;;;;;;;;;;;;;;;;;;;;
2023/03/21 12:54:38;;;;;;;14.73;10.30;;;11.50;99.90;;;;;;4966876;28;20038;-83
2023/03/21 12:57:31;;;;;;;19.67;10.07;;;11.60;99.90;;;;;;4975861;28;20082;-84
2023/03/21 13:00:12;;;;;;;14.85;9.68;;;11.50;99.90;;;;;;4959941;28;20105;-82
2023/03/21 13:03:02;;;;;;;14.65;9.80;;;11.50;99.90;;;;;;4955804;28;20117;-83
2023/03/21 13:05:52;;;;;;;17.38;10.93;;;11.50;99.90;;;;;;4975795;28;20125;-83
2023/03/21 13:08:49;;;;;;;14.90;9.75;;;11.50;99.90;;;;;;5005551;28;20112;-82
2023/03/21 13:11:27;;;;;;;14.43;9.65;;;11.50;99.90;;;;;;4996195;28;20129;-83
2023/03/21 13:14:11;;;;;;;15.23;10.00;;;11.50;99.90;;;;;;4996349;28;20042;-83
2023/03/21 13:16:54;;;;;;;15.33;9.87;;;11.50;99.90;;;;;;4992463;28;20053;-82
2023/03/21 13:19:41;;;;;;;14.95;9.57;;;11.50;99.90;;;;;;4988091;28;20046;-84
2023/03/21 13:22:30;;;;;;;14.65;10.23;;;11.50;99.90;;;;;;4993073;28;20073;-84
2023/03/21 13:25:12;;;;;;;15.60;9.87;;;11.50;99.90;;;;;;4974927;28;20061;-83
2023/03/21 13:27:40;;;;;;;15.30;10.15;;;11.70;99.90;;;;;;4986172;28;20129;-83
2023/03/21 13:30:31;;;;;;;17.02;10.07;;;11.80;99.90;;;;;;5009702;28;20052;-83
2023/03/21 13:33:32;;;;;;;15.32;10.50;;;12.00;99.90;;;;;;5002040;28;20049;-83
2023/03/21 13:36:11;;;;;;;15.20;9.75;;;12.20;99.90;;;;;;5008666;28;20046;-83
2023/03/21 13:38:54;;;;;;;17.85;10.32;;;12.20;99.90;;;;;;5002929;28;20076;-84
2023/03/21 13:41:46;;;;;;;14.05;9.48;;;12.30;99.90;;;;;;4979806;28;20536;-84
2023/03/21 13:44:52;;;;;;;15.80;9.93;;;12.20;99.90;;;;;;4985924;28;20050;-84
2023/03/21 13:47:49;;;;;;;16.75;9.93;;;12.20;99.90;;;;;;4999107;28;20409;-84
2023/03/21 13:50:26;;;;;;;14.80;9.50;;;12.20;99.90;;;;;;4994738;28;20054;-85
2023/03/21 13:53:42;;;;;;;14.48;9.95;;;12.10;99.90;;;;;;5009162;28;20050;-83
2023/03/21 13:56:17;;;;;;;14.07;9.63;;;12.10;99.90;;;;;;4992291;28;20103;-85
2023/03/21 13:58:43;;;;;;;13.77;9.68;;;12.10;99.90;;;;;;4991973;28;20300;-83
2023/03/21 14:01:35;;;;;;;15.60;9.75;;;12.10;99.90;;;;;;4987728;28;20699;-83
2023/03/21 14:04:31;;;;;;;14.73;9.55;;;12.20;99.90;;;;;;5007966;28;20073;-83
2023/03/21 14:07:18;;;;;;;13.15;9.27;;;12.10;99.90;;;;;;4993683;28;20115;-85
2023/03/21 14:10:02;;;;;;;14.13;9.82;;;12.10;99.90;;;;;;4986454;28;20061;-84
2023/03/21 14:12:42;;;;;;;16.10;9.68;;;12.10;99.90;;;;;;4994322;28;20127;-83
2023/03/21 14:15:37;;;;;;;13.18;9.70;;;12.10;99.90;;;;;;4974304;28;20217;-83
2023/03/21 14:18:24;;;;;;;15.07;9.77;;;12.10;99.90;;;;;;4988286;28;20042;-84
2023/03/21 14:21:46;;;;;;;16.52;10.32;;;12.10;99.90;;;;;;4991119;28;20040;-84
2023/03/21 14:24:19;;;;;;;15.82;9.80;;;12.20;99.90;;;;;;4928377;28;20501;-85
2023/03/21 14:27:23;;;;;;;17.35;10.50;;;12.30;99.90;;;;;;4935415;28;20042;-85
2023/03/21 14:29:58;;;;;;;16.88;10.20;;;12.40;99.90;;;;;;4928394;28;20051;-83
2023/03/21 14:32:34;;;;;;;14.40;10.13;;;12.50;99.90;;;;;;4954115;28;20616;-83
2023/03/21 14:35:03;;;;;;;17.42;10.30;;;12.60;99.90;;;;;;4992948;28;20050;-83
2023/03/21 14:37:41;;;;;;;17.30;10.23;;;12.70;99.90;;;;;;4992819;28;20107;-84
2023/03/21 14:40:17;;;;;;;;;;;12.90;99.90;;;;;;4991178;28;20065;-83
2023/03/21 14:42:46;;;;;;;17.90;10.23;;;12.90;99.90;;;;;;4995001;28;19924;-85
2023/03/21 14:45:51;;;;;;;15.00;10.10;;;13.10;99.90;;;;;;4992759;28;20048;-83
2023/03/21 14:48:47;;;;;;;15.30;9.55;;;13.10;99.90;;;;;;4981376;28;20046;-84
2023/03/21 14:51:15;;;;;;;13.20;9.18;;;13.30;99.90;;;;;;4990111;28;20030;-84
2023/03/21 14:54:04;;;;;;;13.75;9.07;;;13.40;99.90;;;;;;4971348;28;20047;-84
2023/03/21 14:56:36;;;;;;;15.07;10.23;;;13.40;99.90;;;;;;4981998;28;20573;-83
2023/03/21 14:59:12;;;;;;;15.77;9.65;;;13.40;99.90;;;;;;5003886;28;20481;-85
2023/03/21 15:01:49;;;;;;;15.43;9.45;;;13.20;99.90;;;;;;5004657;28;20482;-84
2023/03/21 15:04:31;;;;;;;16.02;10.43;;;13.10;99.90;;;;;;4990164;28;20075;-84
2023/03/21 15:07:03;;;;;;;12.80;9.32;;;13.00;99.90;;;;;;4990307;28;20096;-84
2023/03/21 15:09:33;;;;;;;14.05;8.98;;;12.90;99.90;;;;;;4992004;28;20073;-83
2023/03/21 15:12:06;;;;;;;14.90;10.00;;;12.90;99.90;;;;;;4985876;28;20599;-83
2023/03/21 15:14:36;;;;;;;14.05;9.20;;;12.90;99.90;;;;;;4986879;28;20042;-84
2023/03/21 15:17:24;;;;;;;19.17;11.05;;;13.00;99.90;;;;;;4996400;28;20399;-84
2023/03/21 15:19:53;;;;;;;13.85;10.27;;;13.00;99.90;;;;;;4987028;28;20117;-84
2023/03/21 15:22:26;;;;;;;15.10;9.57;;;13.00;99.90;;;;;;4988535;28;20445;-85
2023/03/21 15:24:59;;;;;;;16.02;10.68;;;13.00;99.90;;;;;;4990474;28;20048;-83
2023/03/21 15:27:26;;;;;;;15.38;9.88;;;12.90;99.90;;;;;;5004780;28;20057;-84
2023/03/21 15:29:55;;;;;;;16.67;9.98;;;12.90;99.90;;;;;;4976242;28;20056;-83
2023/03/21 15:32:29;;;;;;;12.70;9.70;;;12.80;99.90;;;;;;4971782;28;20841;-83
2023/03/21 15:35:22;;;;;;;18.00;10.23;;;12.70;99.90;;;;;;4986004;28;20046;-84
2023/03/21 15:38:05;;;;;;;17.38;10.82;;;12.60;99.90;;;;;;4991710;28;20481;-83
2023/03/21 15:40:34;;;;;;;;;;;12.60;99.90;;;;;;4996495;28;20069;-84
2023/03/21 15:43:19;;;;;;;12.85;10.05;;;12.50;99.90;;;;;;5008192;28;19921;-84
2023/03/21 15:45:51;;;;;;;13.73;10.10;;;12.50;99.90;;;;;;5005379;28;20374;-84
2023/03/21 15:48:25;;;;;;;13.98;10.52;;;12.50;99.90;;;;;;5004777;28;20038;-83
2023/03/21 15:50:54;;;;;;;15.07;11.15;;;12.40;99.90;;;;;;4988714;28;20037;-83
2023/03/21 15:53:25;;;;;;;14.25;10.40;;;12.40;99.90;;;;;;5006510;28;20054;-84
2023/03/21 15:56:00;;;;;;;16.80;10.43;;;12.40;99.90;;;;;;4986771;28;20042;-83
2023/03/21 15:58:43;;;;;;;17.92;15.35;;;12.40;99.90;;;;;;4994214;28;20032;-84
2023/03/21 16:01:21;;;;;;;17.02;10.80;;;12.40;99.90;;;;;;4993369;28;20053;-83
2023/03/21 16:04:07;;;;;;;15.50;10.68;;;12.50;99.90;;;;;;4995238;28;20387;-83
2023/03/21 16:06:38;;;;;;;15.43;10.90;;;12.40;99.90;;;;;;5004219;28;20053;-83